sensor_id;sensor_type;location;lat;lon;timestamp;pressure;altitude;pressure_sealevel;temperature
10598;BMP180;5346;48.766;8.674;2023-06-10T00:00:51;93883.00;;;15.60
10598;BMP180;5346;48.766;8.674;2023-06-10T00:03:25;93893.00;;;15.50
10598;BMP180;5346;48.766;8.674;2023-06-10T00:06:00;93893.00;;;15.40
10598;BMP180;5346;48.766;8.674;2023-06-10T00:08:36;93871.00;;;15.40
10598;BMP180;5346;48.766;8.674;2023-06-10T00:11:11;93900.00;;;15.40
10598;BMP180;5346;48.766;8.674;2023-06-10T00:13:38;93888.00;;;15.30
10598;BMP180;5346;48.766;8.674;2023-06-10T00:16:12;93881.00;;;15.30
10598;BMP180;5346;48.766;8.674;2023-06-10T00:18:46;93889.00;;;15.20
10598;BMP180;5346;48.766;8.674;2023-06-10T00:21:20;93864.00;;;15.30
10598;BMP180;5346;48.766;8.674;2023-06-10T00:23:54;93879.00;;;15.40
10598;BMP180;5346;48.766;8.674;2023-06-10T00:26:23;93886.00;;;15.20
10598;BMP180;5346;48.766;8.674;2023-06-10T00:28:57;93863.00;;;15.30
10598;BMP180;5346;48.766;8.674;2023-06-10T00:31:31;93891.00;;;15.20
10598;BMP180;5346;48.766;8.674;2023-06-10T00:34:06;93882.00;;;15.30
10598;BMP180;5346;48.766;8.674;2023-06-10T00:36:41;93873.00;;;15.20
10598;BMP180;5346;48.766;8.674;2023-06-10T00:39:17;93866.00;;;15.20
10598;BMP180;5346;48.766;8.674;2023-06-10T00:41:44;93885.00;;;15.20
10598;BMP180;5346;48.766;8.674;2023-06-10T00:44:12;93887.00;;;15.10
10598;BMP180;5346;48.766;8.674;2023-06-10T00:46:46;93875.00;;;15.20
10598;BMP180;5346;48.766;8.674;2023-06-10T00:49:20;93877.00;;;15.30
10598;BMP180;5346;48.766;8.674;2023-06-10T00:51:54;93887.00;;;15.00
10598;BMP180;5346;48.766;8.674;2023-06-10T00:54:30;93875.00;;;14.80
10598;BMP180;5346;48.766;8.674;2023-06-10T00:57:05;93881.00;;;14.70
10598;BMP180;5346;48.766;8.674;2023-06-10T00:59:41;93883.00;;;14.70
10598;BMP180;5346;48.766;8.674;2023-06-10T01:02:16;93876.00;;;14.70
10598;BMP180;5346;48.766;8.674;2023-06-10T01:04:59;93871.00;;;14.70
10598;BMP180;5346;48.766;8.674;2023-06-10T01:08:07;93888.00;;;14.70
10598;BMP180;5346;48.766;8.674;2023-06-10T01:11:09;93880.00;;;14.80
10598;BMP180;5346;48.766;8.674;2023-06-10T01:13:51;93866.00;;;14.90
10598;BMP180;5346;48.766;8.674;2023-06-10T01:16:22;93883.00;;;14.90
10598;BMP180;5346;48.766;8.674;2023-06-10T01:18:57;93853.00;;;14.80
10598;BMP180;5346;48.766;8.674;2023-06-10T01:21:25;93880.00;;;14.60
10598;BMP180;5346;48.766;8.674;2023-06-10T01:24:01;93881.00;;;14.50
10598;BMP180;5346;48.766;8.674;2023-06-10T01:26:32;93877.00;;;14.60
10598;BMP180;5346;48.766;8.674;2023-06-10T01:29:37;93876.00;;;14.60
10598;BMP180;5346;48.766;8.674;2023-06-10T01:32:24;93831.00;;;14.80
10598;BMP180;5346;48.766;8.674;2023-06-10T01:35:02;93870.00;;;14.80
10598;BMP180;5346;48.766;8.674;2023-06-10T01:37:31;93884.00;;;14.70
10598;BMP180;5346;48.766;8.674;2023-06-10T01:40:08;93849.00;;;14.70
10598;BMP180;5346;48.766;8.674;2023-06-10T01:42:42;93870.00;;;14.60
10598;BMP180;5346;48.766;8.674;2023-06-10T01:45:16;93859.00;;;14.50
10598;BMP180;5346;48.766;8.674;2023-06-10T01:47:43;93877.00;;;14.50
10598;BMP180;5346;48.766;8.674;2023-06-10T01:50:12;93869.00;;;14.60
10598;BMP180;5346;48.766;8.674;2023-06-10T01:52:46;93881.00;;;14.60
10598;BMP180;5346;48.766;8.674;2023-06-10T01:55:20;93879.00;;;14.60
10598;BMP180;5346;48.766;8.674;2023-06-10T01:57:54;93867.00;;;14.50
10598;BMP180;5346;48.766;8.674;2023-06-10T02:00:28;93889.00;;;14.50
10598;BMP180;5346;48.766;8.674;2023-06-10T02:03:08;93886.00;;;14.50
10598;BMP180;5346;48.766;8.674;2023-06-10T02:05:36;93876.00;;;14.70
10598;BMP180;5346;48.766;8.674;2023-06-10T02:08:11;93841.00;;;14.60
10598;BMP180;5346;48.766;8.674;2023-06-10T02:10:38;93865.00;;;14.50
10598;BMP180;5346;48.766;8.674;2023-06-10T02:13:12;93883.00;;;14.40
10598;BMP180;5346;48.766;8.674;2023-06-10T02:15:39;93879.00;;;14.40
10598;BMP180;5346;48.766;8.674;2023-06-10T02:18:13;93864.00;;;14.30
10598;BMP180;5346;48.766;8.674;2023-06-10T02:20:40;93888.00;;;14.40
10598;BMP180;5346;48.766;8.674;2023-06-10T02:23:14;93888.00;;;14.40
10598;BMP180;5346;48.766;8.674;2023-06-10T02:25:43;93876.00;;;14.30
10598;BMP180;5346;48.766;8.674;2023-06-10T02:28:17;93884.00;;;14.20
10598;BMP180;5346;48.766;8.674;2023-06-10T02:30:45;93906.00;;;14.30
10598;BMP180;5346;48.766;8.674;2023-06-10T02:33:14;93869.00;;;14.20
10598;BMP180;5346;48.766;8.674;2023-06-10T02:35:48;93902.00;;;14.10
10598;BMP180;5346;48.766;8.674;2023-06-10T02:38:16;93869.00;;;14.30
10598;BMP180;5346;48.766;8.674;2023-06-10T02:40:43;93903.00;;;14.20
10598;BMP180;5346;48.766;8.674;2023-06-10T02:43:17;93901.00;;;14.30
10598;BMP180;5346;48.766;8.674;2023-06-10T02:45:51;93895.00;;;14.20
10598;BMP180;5346;48.766;8.674;2023-06-10T02:48:26;93875.00;;;14.10
10598;BMP180;5346;48.766;8.674;2023-06-10T02:51:01;93889.00;;;14.10
10598;BMP180;5346;48.766;8.674;2023-06-10T02:53:28;93874.00;;;14.00
10598;BMP180;5346;48.766;8.674;2023-06-10T02:56:02;93893.00;;;13.90
10598;BMP180;5346;48.766;8.674;2023-06-10T02:58:30;93900.00;;;13.90
10598;BMP180;5346;48.766;8.674;2023-06-10T03:01:04;93874.00;;;14.00
10598;BMP180;5346;48.766;8.674;2023-06-10T03:03:45;93902.00;;;14.10
10598;BMP180;5346;48.766;8.674;2023-06-10T03:06:20;93911.00;;;14.20
10598;BMP180;5346;48.766;8.674;2023-06-10T03:09:14;93885.00;;;14.00
10598;BMP180;5346;48.766;8.674;2023-06-10T03:11:48;93904.00;;;13.90
10598;BMP180;5346;48.766;8.674;2023-06-10T03:14:22;93906.00;;;13.80
10598;BMP180;5346;48.766;8.674;2023-06-10T03:16:56;93881.00;;;13.70
10598;BMP180;5346;48.766;8.674;2023-06-10T03:19:23;93907.00;;;13.70
10598;BMP180;5346;48.766;8.674;2023-06-10T03:22:14;93912.00;;;13.80
10598;BMP180;5346;48.766;8.674;2023-06-10T03:24:48;93901.00;;;13.70
10598;BMP180;5346;48.766;8.674;2023-06-10T03:27:24;93901.00;;;13.70
10598;BMP180;5346;48.766;8.674;2023-06-10T03:29:59;93908.00;;;13.70
10598;BMP180;5346;48.766;8.674;2023-06-10T03:32:33;93904.00;;;13.80
10598;BMP180;5346;48.766;8.674;2023-06-10T03:35:00;93919.00;;;13.90
10598;BMP180;5346;48.766;8.674;2023-06-10T03:37:36;93909.00;;;14.00
10598;BMP180;5346;48.766;8.674;2023-06-10T03:40:04;93910.00;;;13.90
10598;BMP180;5346;48.766;8.674;2023-06-10T03:42:39;93910.00;;;14.10
10598;BMP180;5346;48.766;8.674;2023-06-10T03:45:07;93901.00;;;14.00
10598;BMP180;5346;48.766;8.674;2023-06-10T03:47:41;93899.00;;;14.00
10598;BMP180;5346;48.766;8.674;2023-06-10T03:50:10;93910.00;;;13.90
10598;BMP180;5346;48.766;8.674;2023-06-10T03:52:44;93916.00;;;14.10
10598;BMP180;5346;48.766;8.674;2023-06-10T03:55:14;93892.00;;;14.00
10598;BMP180;5346;48.766;8.674;2023-06-10T03:57:50;93914.00;;;13.90
10598;BMP180;5346;48.766;8.674;2023-06-10T04:00:24;93896.00;;;13.90
10598;BMP180;5346;48.766;8.674;2023-06-10T04:02:58;93912.00;;;14.00
10598;BMP180;5346;48.766;8.674;2023-06-10T04:05:33;93900.00;;;14.00
10598;BMP180;5346;48.766;8.674;2023-06-10T04:08:08;93916.00;;;14.00
10598;BMP180;5346;48.766;8.674;2023-06-10T04:10:42;93925.00;;;14.00
10598;BMP180;5346;48.766;8.674;2023-06-10T04:13:16;93894.00;;;14.10
10598;BMP180;5346;48.766;8.674;2023-06-10T04:15:50;93914.00;;;14.20
10598;BMP180;5346;48.766;8.674;2023-06-10T04:18:18;93927.00;;;14.20
10598;BMP180;5346;48.766;8.674;2023-06-10T04:20:52;93905.00;;;14.20
10598;BMP180;5346;48.766;8.674;2023-06-10T04:23:20;93925.00;;;14.20
10598;BMP180;5346;48.766;8.674;2023-06-10T04:25:54;93911.00;;;14.20
10598;BMP180;5346;48.766;8.674;2023-06-10T04:28:28;93932.00;;;14.20
10598;BMP180;5346;48.766;8.674;2023-06-10T04:31:02;93919.00;;;14.30
10598;BMP180;5346;48.766;8.674;2023-06-10T04:33:37;93933.00;;;14.30
10598;BMP180;5346;48.766;8.674;2023-06-10T04:36:05;93930.00;;;14.30
10598;BMP180;5346;48.766;8.674;2023-06-10T04:38:40;93911.00;;;14.50
10598;BMP180;5346;48.766;8.674;2023-06-10T04:41:08;93934.00;;;14.70
10598;BMP180;5346;48.766;8.674;2023-06-10T04:43:42;93925.00;;;14.80
10598;BMP180;5346;48.766;8.674;2023-06-10T04:46:10;93929.00;;;14.90
10598;BMP180;5346;48.766;8.674;2023-06-10T04:48:44;93928.00;;;15.10
10598;BMP180;5346;48.766;8.674;2023-06-10T04:51:14;93894.00;;;15.20
10598;BMP180;5346;48.766;8.674;2023-06-10T04:53:48;93926.00;;;15.40
10598;BMP180;5346;48.766;8.674;2023-06-10T04:56:15;93923.00;;;15.60
10598;BMP180;5346;48.766;8.674;2023-06-10T04:58:50;93936.00;;;15.70
10598;BMP180;5346;48.766;8.674;2023-06-10T05:01:25;93930.00;;;15.90
10598;BMP180;5346;48.766;8.674;2023-06-10T05:03:59;93911.00;;;16.10
10598;BMP180;5346;48.766;8.674;2023-06-10T05:06:40;93893.00;;;16.20
10598;BMP180;5346;48.766;8.674;2023-06-10T05:09:09;93929.00;;;16.40
10598;BMP180;5346;48.766;8.674;2023-06-10T05:11:43;93929.00;;;16.50
10598;BMP180;5346;48.766;8.674;2023-06-10T05:14:18;93910.00;;;16.70
10598;BMP180;5346;48.766;8.674;2023-06-10T05:16:54;93914.00;;;16.80
10598;BMP180;5346;48.766;8.674;2023-06-10T05:19:29;93919.00;;;17.10
10598;BMP180;5346;48.766;8.674;2023-06-10T05:21:57;93923.00;;;17.30
10598;BMP180;5346;48.766;8.674;2023-06-10T05:24:32;93920.00;;;17.50
10598;BMP180;5346;48.766;8.674;2023-06-10T05:27:00;93937.00;;;17.60
10598;BMP180;5346;48.766;8.674;2023-06-10T05:29:33;93916.00;;;17.80
10598;BMP180;5346;48.766;8.674;2023-06-10T05:32:01;93910.00;;;17.80
10598;BMP180;5346;48.766;8.674;2023-06-10T05:34:36;93941.00;;;17.70
10598;BMP180;5346;48.766;8.674;2023-06-10T05:37:10;93937.00;;;18.00
10598;BMP180;5346;48.766;8.674;2023-06-10T05:39:46;93932.00;;;17.90
10598;BMP180;5346;48.766;8.674;2023-06-10T05:42:20;93937.00;;;18.10
10598;BMP180;5346;48.766;8.674;2023-06-10T05:44:54;93938.00;;;18.10
10598;BMP180;5346;48.766;8.674;2023-06-10T05:47:22;93909.00;;;18.30
10598;BMP180;5346;48.766;8.674;2023-06-10T05:49:56;93924.00;;;18.60
10598;BMP180;5346;48.766;8.674;2023-06-10T05:52:35;93939.00;;;18.90
10598;BMP180;5346;48.766;8.674;2023-06-10T05:55:09;93947.00;;;18.90
10598;BMP180;5346;48.766;8.674;2023-06-10T05:57:38;93948.00;;;19.20
10598;BMP180;5346;48.766;8.674;2023-06-10T06:00:13;93931.00;;;19.80
10598;BMP180;5346;48.766;8.674;2023-06-10T06:02:48;93926.00;;;20.10
10598;BMP180;5346;48.766;8.674;2023-06-10T06:05:28;93953.00;;;20.50
10598;BMP180;5346;48.766;8.674;2023-06-10T06:08:11;93950.00;;;20.50
10598;BMP180;5346;48.766;8.674;2023-06-10T06:10:40;93928.00;;;20.70
10598;BMP180;5346;48.766;8.674;2023-06-10T06:13:14;93949.00;;;21.50
10598;BMP180;5346;48.766;8.674;2023-06-10T06:15:49;93944.00;;;22.10
10598;BMP180;5346;48.766;8.674;2023-06-10T06:18:17;93954.00;;;22.30
10598;BMP180;5346;48.766;8.674;2023-06-10T06:20:54;93952.00;;;22.80
10598;BMP180;5346;48.766;8.674;2023-06-10T06:23:27;93915.00;;;22.70
10598;BMP180;5346;48.766;8.674;2023-06-10T06:25:55;93919.00;;;23.30
10598;BMP180;5346;48.766;8.674;2023-06-10T06:28:29;93938.00;;;23.40
10598;BMP180;5346;48.766;8.674;2023-06-10T06:31:04;93950.00;;;23.90
10598;BMP180;5346;48.766;8.674;2023-06-10T06:33:38;93965.00;;;23.70
10598;BMP180;5346;48.766;8.674;2023-06-10T06:36:06;93941.00;;;23.60
10598;BMP180;5346;48.766;8.674;2023-06-10T06:38:39;93919.00;;;24.10
10598;BMP180;5346;48.766;8.674;2023-06-10T06:41:07;93942.00;;;24.10
10598;BMP180;5346;48.766;8.674;2023-06-10T06:43:41;93912.00;;;24.30
10598;BMP180;5346;48.766;8.674;2023-06-10T06:46:10;93970.00;;;24.10
10598;BMP180;5346;48.766;8.674;2023-06-10T06:48:44;93964.00;;;23.90
10598;BMP180;5346;48.766;8.674;2023-06-10T06:51:18;93969.00;;;24.10
10598;BMP180;5346;48.766;8.674;2023-06-10T06:53:52;93977.00;;;24.10
10598;BMP180;5346;48.766;8.674;2023-06-10T06:56:30;93944.00;;;23.90
10598;BMP180;5346;48.766;8.674;2023-06-10T06:58:58;93967.00;;;23.20
10598;BMP180;5346;48.766;8.674;2023-06-10T07:01:38;93964.00;;;22.70
10598;BMP180;5346;48.766;8.674;2023-06-10T07:04:15;93987.00;;;22.40
10598;BMP180;5346;48.766;8.674;2023-06-10T07:06:56;93970.00;;;22.40
10598;BMP180;5346;48.766;8.674;2023-06-10T07:09:30;93991.00;;;22.60
10598;BMP180;5346;48.766;8.674;2023-06-10T07:11:59;93959.00;;;22.10
10598;BMP180;5346;48.766;8.674;2023-06-10T07:14:33;93992.00;;;22.00
10598;BMP180;5346;48.766;8.674;2023-06-10T07:17:02;93996.00;;;22.40
10598;BMP180;5346;48.766;8.674;2023-06-10T07:19:36;93972.00;;;22.50
10598;BMP180;5346;48.766;8.674;2023-06-10T07:22:08;93985.00;;;22.70
10598;BMP180;5346;48.766;8.674;2023-06-10T07:24:42;93995.00;;;22.70
10598;BMP180;5346;48.766;8.674;2023-06-10T07:27:16;93987.00;;;22.70
10598;BMP180;5346;48.766;8.674;2023-06-10T07:29:51;93979.00;;;23.00
10598;BMP180;5346;48.766;8.674;2023-06-10T07:32:20;93971.00;;;22.90
10598;BMP180;5346;48.766;8.674;2023-06-10T07:34:55;93975.00;;;22.80
10598;BMP180;5346;48.766;8.674;2023-06-10T07:37:23;93983.00;;;23.20
10598;BMP180;5346;48.766;8.674;2023-06-10T07:39:57;93974.00;;;23.10
10598;BMP180;5346;48.766;8.674;2023-06-10T07:42:24;93973.00;;;23.00
10598;BMP180;5346;48.766;8.674;2023-06-10T07:44:59;93946.00;;;23.30
10598;BMP180;5346;48.766;8.674;2023-06-10T07:47:28;93966.00;;;23.20
10598;BMP180;5346;48.766;8.674;2023-06-10T07:50:03;93979.00;;;23.10
10598;BMP180;5346;48.766;8.674;2023-06-10T07:52:31;93993.00;;;23.10
10598;BMP180;5346;48.766;8.674;2023-06-10T07:55:06;93958.00;;;23.20
10598;BMP180;5346;48.766;8.674;2023-06-10T07:57:34;93990.00;;;23.10
10598;BMP180;5346;48.766;8.674;2023-06-10T08:00:11;93977.00;;;23.50
10598;BMP180;5346;48.766;8.674;2023-06-10T08:02:39;93988.00;;;23.80
10598;BMP180;5346;48.766;8.674;2023-06-10T08:05:19;93955.00;;;24.10
10598;BMP180;5346;48.766;8.674;2023-06-10T08:07:48;93968.00;;;24.10
10598;BMP180;5346;48.766;8.674;2023-06-10T08:10:22;93991.00;;;23.90
10598;BMP180;5346;48.766;8.674;2023-06-10T08:12:59;93960.00;;;24.00
10598;BMP180;5346;48.766;8.674;2023-06-10T08:15:33;93982.00;;;24.00
10598;BMP180;5346;48.766;8.674;2023-06-10T08:18:01;93969.00;;;24.40
10598;BMP180;5346;48.766;8.674;2023-06-10T08:20:34;93959.00;;;24.40
10598;BMP180;5346;48.766;8.674;2023-06-10T08:23:08;93971.00;;;24.40
10598;BMP180;5346;48.766;8.674;2023-06-10T08:25:42;93989.00;;;24.30
10598;BMP180;5346;48.766;8.674;2023-06-10T08:28:16;93943.00;;;24.10
10598;BMP180;5346;48.766;8.674;2023-06-10T08:30:43;93982.00;;;24.20
10598;BMP180;5346;48.766;8.674;2023-06-10T08:33:17;93974.00;;;24.20
10598;BMP180;5346;48.766;8.674;2023-06-10T08:35:51;93987.00;;;24.70
10598;BMP180;5346;48.766;8.674;2023-06-10T08:38:25;93976.00;;;25.10
10598;BMP180;5346;48.766;8.674;2023-06-10T08:41:06;93975.00;;;25.70
10598;BMP180;5346;48.766;8.674;2023-06-10T08:43:40;93977.00;;;25.70
10598;BMP180;5346;48.766;8.674;2023-06-10T08:46:16;93956.00;;;25.80
10598;BMP180;5346;48.766;8.674;2023-06-10T08:48:49;93979.00;;;26.10
10598;BMP180;5346;48.766;8.674;2023-06-10T08:51:29;93981.00;;;25.40
10598;BMP180;5346;48.766;8.674;2023-06-10T08:54:05;93985.00;;;25.60
10598;BMP180;5346;48.766;8.674;2023-06-10T08:56:43;93985.00;;;26.20
10598;BMP180;5346;48.766;8.674;2023-06-10T08:59:11;93982.00;;;25.90
10598;BMP180;5346;48.766;8.674;2023-06-10T09:01:47;93987.00;;;26.20
10598;BMP180;5346;48.766;8.674;2023-06-10T09:04:27;93942.00;;;26.60
10598;BMP180;5346;48.766;8.674;2023-06-10T09:07:03;93973.00;;;26.80
10598;BMP180;5346;48.766;8.674;2023-06-10T09:09:37;93952.00;;;26.60
10598;BMP180;5346;48.766;8.674;2023-06-10T09:12:13;93974.00;;;26.80
10598;BMP180;5346;48.766;8.674;2023-06-10T09:14:47;93961.00;;;27.30
10598;BMP180;5346;48.766;8.674;2023-06-10T09:17:21;93985.00;;;26.30
10598;BMP180;5346;48.766;8.674;2023-06-10T09:19:50;93956.00;;;25.80
10598;BMP180;5346;48.766;8.674;2023-06-10T09:22:24;93961.00;;;26.10
10598;BMP180;5346;48.766;8.674;2023-06-10T09:27:45;93973.00;;;26.70
10598;BMP180;5346;48.766;8.674;2023-06-10T09:30:28;93977.00;;;26.20
10598;BMP180;5346;48.766;8.674;2023-06-10T09:33:10;93954.00;;;26.50
10598;BMP180;5346;48.766;8.674;2023-06-10T09:35:50;93970.00;;;26.60
10598;BMP180;5346;48.766;8.674;2023-06-10T09:38:30;93933.00;;;27.00
10598;BMP180;5346;48.766;8.674;2023-06-10T09:41:05;93997.00;;;26.50
10598;BMP180;5346;48.766;8.674;2023-06-10T09:43:44;93959.00;;;26.60
10598;BMP180;5346;48.766;8.674;2023-06-10T09:46:19;93932.00;;;26.60
10598;BMP180;5346;48.766;8.674;2023-06-10T09:48:48;93952.00;;;26.80
10598;BMP180;5346;48.766;8.674;2023-06-10T09:51:22;93954.00;;;27.10
10598;BMP180;5346;48.766;8.674;2023-06-10T09:53:54;93952.00;;;27.60
10598;BMP180;5346;48.766;8.674;2023-06-10T09:56:37;93960.00;;;28.00
10598;BMP180;5346;48.766;8.674;2023-06-10T09:59:04;93960.00;;;28.10
10598;BMP180;5346;48.766;8.674;2023-06-10T10:01:39;93950.00;;;28.70
10598;BMP180;5346;48.766;8.674;2023-06-10T10:04:23;93949.00;;;28.40
10598;BMP180;5346;48.766;8.674;2023-06-10T10:07:04;93962.00;;;29.40
10598;BMP180;5346;48.766;8.674;2023-06-10T10:09:41;93958.00;;;29.30
10598;BMP180;5346;48.766;8.674;2023-06-10T10:12:16;93950.00;;;29.70
10598;BMP180;5346;48.766;8.674;2023-06-10T10:14:51;93957.00;;;30.30
10598;BMP180;5346;48.766;8.674;2023-06-10T10:17:26;93960.00;;;30.80
10598;BMP180;5346;48.766;8.674;2023-06-10T10:20:05;93961.00;;;29.20
10598;BMP180;5346;48.766;8.674;2023-06-10T10:22:46;93972.00;;;29.60
10598;BMP180;5346;48.766;8.674;2023-06-10T10:25:23;93963.00;;;29.90
10598;BMP180;5346;48.766;8.674;2023-06-10T10:28:08;93943.00;;;30.40
10598;BMP180;5346;48.766;8.674;2023-06-10T10:30:49;93958.00;;;31.00
10598;BMP180;5346;48.766;8.674;2023-06-10T10:33:33;93993.00;;;30.80
10598;BMP180;5346;48.766;8.674;2023-06-10T10:36:10;93956.00;;;29.20
10598;BMP180;5346;48.766;8.674;2023-06-10T10:38:38;93942.00;;;29.90
10598;BMP180;5346;48.766;8.674;2023-06-10T10:41:19;93965.00;;;30.50
10598;BMP180;5346;48.766;8.674;2023-06-10T10:43:50;93941.00;;;31.10
10598;BMP180;5346;48.766;8.674;2023-06-10T10:46:25;93930.00;;;31.00
10598;BMP180;5346;48.766;8.674;2023-06-10T10:48:54;93939.00;;;30.80
10598;BMP180;5346;48.766;8.674;2023-06-10T10:51:34;93937.00;;;29.90
10598;BMP180;5346;48.766;8.674;2023-06-10T10:54:13;93961.00;;;30.20
10598;BMP180;5346;48.766;8.674;2023-06-10T10:57:28;94007.00;;;29.20
10598;BMP180;5346;48.766;8.674;2023-06-10T11:00:03;93965.00;;;27.50
10598;BMP180;5346;48.766;8.674;2023-06-10T11:02:40;94008.00;;;26.40
10598;BMP180;5346;48.766;8.674;2023-06-10T11:05:31;93958.00;;;28.40
10598;BMP180;5346;48.766;8.674;2023-06-10T11:08:08;93944.00;;;30.10
10598;BMP180;5346;48.766;8.674;2023-06-10T11:10:52;93955.00;;;30.50
10598;BMP180;5346;48.766;8.674;2023-06-10T11:13:28;93932.00;;;30.80
10598;BMP180;5346;48.766;8.674;2023-06-10T11:16:04;93977.00;;;30.60
10598;BMP180;5346;48.766;8.674;2023-06-10T11:18:39;93940.00;;;29.10
10598;BMP180;5346;48.766;8.674;2023-06-10T11:21:07;93932.00;;;29.50
10598;BMP180;5346;48.766;8.674;2023-06-10T11:23:41;93944.00;;;30.30
10598;BMP180;5346;48.766;8.674;2023-06-10T11:29:07;93944.00;;;31.00
10598;BMP180;5346;48.766;8.674;2023-06-10T11:31:44;93943.00;;;31.20
10598;BMP180;5346;48.766;8.674;2023-06-10T11:34:25;93915.00;;;31.20
10598;BMP180;5346;48.766;8.674;2023-06-10T11:36:54;93931.00;;;31.50
10598;BMP180;5346;48.766;8.674;2023-06-10T11:39:28;93934.00;;;32.10
10598;BMP180;5346;48.766;8.674;2023-06-10T11:42:03;93922.00;;;31.60
10598;BMP180;5346;48.766;8.674;2023-06-10T11:44:37;93987.00;;;31.20
10598;BMP180;5346;48.766;8.674;2023-06-10T11:47:05;93944.00;;;30.00
10598;BMP180;5346;48.766;8.674;2023-06-10T11:49:39;93922.00;;;30.80
10598;BMP180;5346;48.766;8.674;2023-06-10T11:52:26;93913.00;;;31.80
10598;BMP180;5346;48.766;8.674;2023-06-10T11:55:01;93919.00;;;31.80
10598;BMP180;5346;48.766;8.674;2023-06-10T11:57:37;93906.00;;;31.60
10598;BMP180;5346;48.766;8.674;2023-06-10T12:00:14;93930.00;;;31.50
10598;BMP180;5346;48.766;8.674;2023-06-10T12:02:56;93916.00;;;31.60
10598;BMP180;5346;48.766;8.674;2023-06-10T12:05:31;93923.00;;;32.30
10598;BMP180;5346;48.766;8.674;2023-06-10T12:08:11;93927.00;;;32.50
10598;BMP180;5346;48.766;8.674;2023-06-10T12:10:45;93915.00;;;32.00
10598;BMP180;5346;48.766;8.674;2023-06-10T12:13:14;93897.00;;;32.40
10598;BMP180;5346;48.766;8.674;2023-06-10T12:15:48;93942.00;;;33.20
10598;BMP180;5346;48.766;8.674;2023-06-10T12:18:23;93921.00;;;31.50
10598;BMP180;5346;48.766;8.674;2023-06-10T12:20:57;93924.00;;;31.90
10598;BMP180;5346;48.766;8.674;2023-06-10T12:23:31;93889.00;;;32.80
10598;BMP180;5346;48.766;8.674;2023-06-10T12:26:06;93967.00;;;32.50
10598;BMP180;5346;48.766;8.674;2023-06-10T12:28:33;93911.00;;;32.50
10598;BMP180;5346;48.766;8.674;2023-06-10T12:31:08;93972.00;;;31.70
10598;BMP180;5346;48.766;8.674;2023-06-10T12:33:43;93924.00;;;30.30
10598;BMP180;5346;48.766;8.674;2023-06-10T12:36:19;93951.00;;;30.60
10598;BMP180;5346;48.766;8.674;2023-06-10T12:39:05;93969.00;;;28.90
10598;BMP180;5346;48.766;8.674;2023-06-10T12:41:39;93983.00;;;27.50
10598;BMP180;5346;48.766;8.674;2023-06-10T12:44:14;93966.00;;;27.00
10598;BMP180;5346;48.766;8.674;2023-06-10T12:46:41;93942.00;;;26.60
10598;BMP180;5346;48.766;8.674;2023-06-10T12:49:21;93983.00;;;26.30
10598;BMP180;5346;48.766;8.674;2023-06-10T12:51:56;93897.00;;;27.80
10598;BMP180;5346;48.766;8.674;2023-06-10T12:54:31;93908.00;;;29.30
10598;BMP180;5346;48.766;8.674;2023-06-10T12:56:59;93911.00;;;30.60
10598;BMP180;5346;48.766;8.674;2023-06-10T12:59:32;93979.00;;;30.90
10598;BMP180;5346;48.766;8.674;2023-06-10T13:02:06;93914.00;;;31.20
10598;BMP180;5346;48.766;8.674;2023-06-10T13:04:47;93902.00;;;31.20
10598;BMP180;5346;48.766;8.674;2023-06-10T13:07:21;93885.00;;;31.20
10598;BMP180;5346;48.766;8.674;2023-06-10T13:09:49;93928.00;;;32.00
10598;BMP180;5346;48.766;8.674;2023-06-10T13:12:25;93936.00;;;30.30
10598;BMP180;5346;48.766;8.674;2023-06-10T13:15:14;93969.00;;;28.10
10598;BMP180;5346;48.766;8.674;2023-06-10T13:17:44;93953.00;;;27.20
10598;BMP180;5346;48.766;8.674;2023-06-10T13:20:23;93891.00;;;28.00
10598;BMP180;5346;48.766;8.674;2023-06-10T13:22:50;93890.00;;;30.10
10598;BMP180;5346;48.766;8.674;2023-06-10T13:25:24;93892.00;;;31.30
10598;BMP180;5346;48.766;8.674;2023-06-10T13:27:58;93948.00;;;31.70
10598;BMP180;5346;48.766;8.674;2023-06-10T13:30:32;93952.00;;;30.80
10598;BMP180;5346;48.766;8.674;2023-06-10T13:33:06;93942.00;;;29.30
10598;BMP180;5346;48.766;8.674;2023-06-10T13:35:34;93958.00;;;28.10
10598;BMP180;5346;48.766;8.674;2023-06-10T13:38:07;93961.00;;;27.30
10598;BMP180;5346;48.766;8.674;2023-06-10T13:40:41;93953.00;;;26.80
10598;BMP180;5346;48.766;8.674;2023-06-10T13:43:15;93922.00;;;26.80
10598;BMP180;5346;48.766;8.674;2023-06-10T13:45:52;93936.00;;;26.80
10598;BMP180;5346;48.766;8.674;2023-06-10T13:48:25;93963.00;;;26.60
10598;BMP180;5346;48.766;8.674;2023-06-10T13:50:52;93928.00;;;26.60
10598;BMP180;5346;48.766;8.674;2023-06-10T13:53:26;93951.00;;;26.40
10598;BMP180;5346;48.766;8.674;2023-06-10T13:55:53;93867.00;;;27.40
10598;BMP180;5346;48.766;8.674;2023-06-10T13:58:27;93884.00;;;29.70
10598;BMP180;5346;48.766;8.674;2023-06-10T14:00:54;93886.00;;;31.20
10598;BMP180;5346;48.766;8.674;2023-06-10T14:03:28;93877.00;;;32.10
10598;BMP180;5346;48.766;8.674;2023-06-10T14:06:03;93835.00;;;32.60
10598;BMP180;5346;48.766;8.674;2023-06-10T14:08:37;93863.00;;;33.20
10598;BMP180;5346;48.766;8.674;2023-06-10T14:11:11;93921.00;;;31.80
10598;BMP180;5346;48.766;8.674;2023-06-10T14:13:41;93872.00;;;30.10
10598;BMP180;5346;48.766;8.674;2023-06-10T14:16:16;93906.00;;;31.20
10598;BMP180;5346;48.766;8.674;2023-06-10T14:18:44;93873.00;;;32.10
10598;BMP180;5346;48.766;8.674;2023-06-10T14:21:12;93870.00;;;32.70
10598;BMP180;5346;48.766;8.674;2023-06-10T14:23:47;93872.00;;;33.60
10598;BMP180;5346;48.766;8.674;2023-06-10T14:26:26;93863.00;;;34.00
10598;BMP180;5346;48.766;8.674;2023-06-10T14:28:55;93870.00;;;32.90
10598;BMP180;5346;48.766;8.674;2023-06-10T14:31:30;93861.00;;;33.10
10598;BMP180;5346;48.766;8.674;2023-06-10T14:34:04;93923.00;;;32.00
10598;BMP180;5346;48.766;8.674;2023-06-10T14:36:42;93924.00;;;30.10
10598;BMP180;5346;48.766;8.674;2023-06-10T14:39:09;93925.00;;;29.00
10598;BMP180;5346;48.766;8.674;2023-06-10T14:41:44;93934.00;;;27.80
10598;BMP180;5346;48.766;8.674;2023-06-10T14:44:11;93877.00;;;27.40
10598;BMP180;5346;48.766;8.674;2023-06-10T14:46:46;93929.00;;;26.70
10598;BMP180;5346;48.766;8.674;2023-06-10T14:49:15;93934.00;;;26.20
10598;BMP180;5346;48.766;8.674;2023-06-10T14:51:49;93874.00;;;26.80
10598;BMP180;5346;48.766;8.674;2023-06-10T14:54:25;93872.00;;;28.60
10598;BMP180;5346;48.766;8.674;2023-06-10T14:57:00;93869.00;;;30.40
10598;BMP180;5346;48.766;8.674;2023-06-10T14:59:35;93873.00;;;31.60
10598;BMP180;5346;48.766;8.674;2023-06-10T15:02:02;93866.00;;;31.90
10598;BMP180;5346;48.766;8.674;2023-06-10T15:04:43;93859.00;;;32.50
10598;BMP180;5346;48.766;8.674;2023-06-10T15:07:19;93854.00;;;33.50